sensor_id;sensor_type;location;lat;lon;timestamp;temperature;humidity
73780;SHT30;62093;37.614;15.072;2022-11-14T00:01:11;17.66;66.27
73780;SHT30;62093;37.614;15.072;2022-11-14T00:04:03;17.68;66.41
73780;SHT30;62093;37.614;15.072;2022-11-14T00:07:06;17.72;66.52
73780;SHT30;62093;37.614;15.072;2022-11-14T00:09:56;17.72;66.41
73780;SHT30;62093;37.614;15.072;2022-11-14T00:12:43;17.73;66.64
73780;SHT30;62093;37.614;15.072;2022-11-14T00:15:27;17.73;66.53
73780;SHT30;62093;37.614;15.072;2022-11-14T00:18:12;17.71;66.38
73780;SHT30;62093;37.614;15.072;2022-11-14T00:20:56;17.71;66.68
73780;SHT30;62093;37.614;15.072;2022-11-14T00:23:40;17.73;66.52
73780;SHT30;62093;37.614;15.072;2022-11-14T00:26:24;17.75;66.44
73780;SHT30;62093;37.614;15.072;2022-11-14T00:29:13;17.71;66.65
73780;SHT30;62093;37.614;15.072;2022-11-14T00:31:58;17.69;66.62
73780;SHT30;62093;37.614;15.072;2022-11-14T00:34:43;17.73;66.51
73780;SHT30;62093;37.614;15.072;2022-11-14T00:37:28;17.73;66.59
73780;SHT30;62093;37.614;15.072;2022-11-14T00:40:12;17.75;66.53
73780;SHT30;62093;37.614;15.072;2022-11-14T00:42:58;17.73;66.52
73780;SHT30;62093;37.614;15.072;2022-11-14T00:45:46;17.69;66.47
73780;SHT30;62093;37.614;15.072;2022-11-14T00:48:30;17.72;66.59
73780;SHT30;62093;37.614;15.072;2022-11-14T00:51:15;17.73;66.71
73780;SHT30;62093;37.614;15.072;2022-11-14T00:53:59;17.73;66.52
73780;SHT30;62093;37.614;15.072;2022-11-14T00:56:43;17.69;66.48
73780;SHT30;62093;37.614;15.072;2022-11-14T00:59:28;17.72;66.66
73780;SHT30;62093;37.614;15.072;2022-11-14T01:02:12;17.72;66.76
73780;SHT30;62093;37.614;15.072;2022-11-14T01:04:56;17.73;66.56
73780;SHT30;62093;37.614;15.072;2022-11-14T01:07:41;17.75;66.59
73780;SHT30;62093;37.614;15.072;2022-11-14T01:10:25;17.75;66.50
73780;SHT30;62093;37.614;15.072;2022-11-14T01:13:10;17.72;66.59
73780;SHT30;62093;37.614;15.072;2022-11-14T01:15:59;17.71;66.64
73780;SHT30;62093;37.614;15.072;2022-11-14T01:18:43;17.71;66.60
73780;SHT30;62093;37.614;15.072;2022-11-14T01:21:29;17.72;66.55
73780;SHT30;62093;37.614;15.072;2022-11-14T01:24:13;17.73;66.56
73780;SHT30;62093;37.614;15.072;2022-11-14T01:26:58;17.72;66.70
73780;SHT30;62093;37.614;15.072;2022-11-14T01:29:42;17.75;66.58
73780;SHT30;62093;37.614;15.072;2022-11-14T01:32:27;17.78;66.64
73780;SHT30;62093;37.614;15.072;2022-11-14T01:35:11;17.75;66.51
73780;SHT30;62093;37.614;15.072;2022-11-14T01:37:55;17.73;66.57
73780;SHT30;62093;37.614;15.072;2022-11-14T01:40:42;17.71;66.61
73780;SHT30;62093;37.614;15.072;2022-11-14T01:43:35;17.75;66.50
73780;SHT30;62093;37.614;15.072;2022-11-14T01:46:33;17.73;66.56
73780;SHT30;62093;37.614;15.072;2022-11-14T01:49:21;17.75;66.55
73780;SHT30;62093;37.614;15.072;2022-11-14T01:52:16;17.72;66.56
73780;SHT30;62093;37.614;15.072;2022-11-14T01:55:04;17.72;66.61
73780;SHT30;62093;37.614;15.072;2022-11-14T01:57:49;17.72;66.70
73780;SHT30;62093;37.614;15.072;2022-11-14T02:00:34;17.73;66.60
73780;SHT30;62093;37.614;15.072;2022-11-14T02:03:19;17.73;66.60
73780;SHT30;62093;37.614;15.072;2022-11-14T02:06:05;17.75;66.68
73780;SHT30;62093;37.614;15.072;2022-11-14T02:08:51;17.75;66.67
73780;SHT30;62093;37.614;15.072;2022-11-14T02:11:40;17.73;66.67
73780;SHT30;62093;37.614;15.072;2022-11-14T02:14:26;17.75;66.63
73780;SHT30;62093;37.614;15.072;2022-11-14T02:17:12;17.73;66.69
73780;SHT30;62093;37.614;15.072;2022-11-14T02:20:06;17.73;66.62
73780;SHT30;62093;37.614;15.072;2022-11-14T02:22:50;17.71;66.69
73780;SHT30;62093;37.614;15.072;2022-11-14T02:25:35;17.76;66.61
73780;SHT30;62093;37.614;15.072;2022-11-14T02:28:19;17.75;66.67
73780;SHT30;62093;37.614;15.072;2022-11-14T02:31:04;17.73;66.71
73780;SHT30;62093;37.614;15.072;2022-11-14T02:33:48;17.78;66.59
73780;SHT30;62093;37.614;15.072;2022-11-14T02:36:33;17.75;66.63
73780;SHT30;62093;37.614;15.072;2022-11-14T02:39:17;17.73;66.68
73780;SHT30;62093;37.614;15.072;2022-11-14T02:42:01;17.75;66.64
73780;SHT30;62093;37.614;15.072;2022-11-14T02:44:46;17.76;66.71
73780;SHT30;62093;37.614;15.072;2022-11-14T02:47:30;17.72;66.76
73780;SHT30;62093;37.614;15.072;2022-11-14T02:50:16;17.76;66.68
73780;SHT30;62093;37.614;15.072;2022-11-14T02:53:00;17.81;66.58
73780;SHT30;62093;37.614;15.072;2022-11-14T02:55:44;17.78;66.60
73780;SHT30;62093;37.614;15.072;2022-11-14T02:58:29;17.81;66.58
73780;SHT30;62093;37.614;15.072;2022-11-14T03:01:13;17.76;66.61
73780;SHT30;62093;37.614;15.072;2022-11-14T03:03:58;17.75;66.68
73780;SHT30;62093;37.614;15.072;2022-11-14T03:06:42;17.76;66.67
73780;SHT30;62093;37.614;15.072;2022-11-14T03:09:27;17.79;66.67
73780;SHT30;62093;37.614;15.072;2022-11-14T03:12:11;17.82;66.64
73780;SHT30;62093;37.614;15.072;2022-11-14T03:14:58;17.76;66.66
73780;SHT30;62093;37.614;15.072;2022-11-14T03:17:42;17.76;66.68
73780;SHT30;62093;37.614;15.072;2022-11-14T03:20:26;17.79;66.73
73780;SHT30;62093;37.614;15.072;2022-11-14T03:23:10;17.81;66.63
73780;SHT30;62093;37.614;15.072;2022-11-14T03:25:59;17.79;66.61
73780;SHT30;62093;37.614;15.072;2022-11-14T03:28:43;17.81;66.60
73780;SHT30;62093;37.614;15.072;2022-11-14T03:31:27;17.81;66.63
73780;SHT30;62093;37.614;15.072;2022-11-14T03:34:12;17.82;66.63
73780;SHT30;62093;37.614;15.072;2022-11-14T03:36:57;17.82;66.63
73780;SHT30;62093;37.614;15.072;2022-11-14T03:39:41;17.83;66.63
73780;SHT30;62093;37.614;15.072;2022-11-14T03:42:25;17.83;66.59
73780;SHT30;62093;37.614;15.072;2022-11-14T03:45:10;17.85;66.65
73780;SHT30;62093;37.614;15.072;2022-11-14T03:47:55;17.83;66.61
73780;SHT30;62093;37.614;15.072;2022-11-14T03:50:41;17.85;66.58
73780;SHT30;62093;37.614;15.072;2022-11-14T03:53:25;17.82;66.63
73780;SHT30;62093;37.614;15.072;2022-11-14T03:56:11;17.86;66.59
73780;SHT30;62093;37.614;15.072;2022-11-14T03:58:56;17.85;66.59
73780;SHT30;62093;37.614;15.072;2022-11-14T04:01:40;17.86;66.60
73780;SHT30;62093;37.614;15.072;2022-11-14T04:04:25;17.83;66.71
73780;SHT30;62093;37.614;15.072;2022-11-14T04:07:09;17.85;66.64
73780;SHT30;62093;37.614;15.072;2022-11-14T04:09:53;17.85;66.69
73780;SHT30;62093;37.614;15.072;2022-11-14T04:12:37;17.83;66.71
73780;SHT30;62093;37.614;15.072;2022-11-14T04:15:22;17.83;66.65
73780;SHT30;62093;37.614;15.072;2022-11-14T04:18:06;17.87;66.70
73780;SHT30;62093;37.614;15.072;2022-11-14T04:20:51;17.86;66.62
73780;SHT30;62093;37.614;15.072;2022-11-14T04:23:35;17.83;66.70
73780;SHT30;62093;37.614;15.072;2022-11-14T04:26:20;17.83;66.61
73780;SHT30;62093;37.614;15.072;2022-11-14T04:29:04;17.86;66.65
73780;SHT30;62093;37.614;15.072;2022-11-14T04:31:48;17.83;66.62
73780;SHT30;62093;37.614;15.072;2022-11-14T04:34:33;17.86;66.64
73780;SHT30;62093;37.614;15.072;2022-11-14T04:37:17;17.83;66.61
73780;SHT30;62093;37.614;15.072;2022-11-14T04:40:02;17.87;66.50
73780;SHT30;62093;37.614;15.072;2022-11-14T04:42:47;17.87;66.48
73780;SHT30;62093;37.614;15.072;2022-11-14T04:45:32;17.87;66.49
73780;SHT30;62093;37.614;15.072;2022-11-14T04:48:16;17.86;66.54
73780;SHT30;62093;37.614;15.072;2022-11-14T04:51:00;17.90;66.48
73780;SHT30;62093;37.614;15.072;2022-11-14T04:53:45;17.85;66.56
73780;SHT30;62093;37.614;15.072;2022-11-14T04:56:29;17.87;66.51
73780;SHT30;62093;37.614;15.072;2022-11-14T04:59:14;17.92;66.32
73780;SHT30;62093;37.614;15.072;2022-11-14T05:01:58;17.92;66.28
73780;SHT30;62093;37.614;15.072;2022-11-14T05:04:43;17.92;66.24
73780;SHT30;62093;37.614;15.072;2022-11-14T05:07:29;17.85;66.38
73780;SHT30;62093;37.614;15.072;2022-11-14T05:10:14;17.86;66.37
73780;SHT30;62093;37.614;15.072;2022-11-14T05:12:58;17.87;66.35
73780;SHT30;62093;37.614;15.072;2022-11-14T05:15:42;17.86;66.30
73780;SHT30;62093;37.614;15.072;2022-11-14T05:18:27;17.86;66.42
73780;SHT30;62093;37.614;15.072;2022-11-14T05:21:13;17.90;66.24
73780;SHT30;62093;37.614;15.072;2022-11-14T05:23:57;17.90;66.13
73780;SHT30;62093;37.614;15.072;2022-11-14T05:26:41;17.83;66.22
73780;SHT30;62093;37.614;15.072;2022-11-14T05:29:26;17.83;66.22
73780;SHT30;62093;37.614;15.072;2022-11-14T05:32:10;17.85;66.23
73780;SHT30;62093;37.614;15.072;2022-11-14T05:34:55;17.76;66.21
73780;SHT30;62093;37.614;15.072;2022-11-14T05:37:39;17.81;66.15
73780;SHT30;62093;37.614;15.072;2022-11-14T05:40:23;17.79;66.22
73780;SHT30;62093;37.614;15.072;2022-11-14T05:43:07;17.81;66.21
73780;SHT30;62093;37.614;15.072;2022-11-14T05:45:51;17.79;66.08
73780;SHT30;62093;37.614;15.072;2022-11-14T05:48:36;17.79;66.04
73780;SHT30;62093;37.614;15.072;2022-11-14T05:51:21;17.79;66.07
73780;SHT30;62093;37.614;15.072;2022-11-14T05:54:05;17.82;66.08
73780;SHT30;62093;37.614;15.072;2022-11-14T05:56:50;17.78;65.70
73780;SHT30;62093;37.614;15.072;2022-11-14T05:59:34;17.81;65.76
73780;SHT30;62093;37.614;15.072;2022-11-14T06:02:18;17.78;65.93
73780;SHT30;62093;37.614;15.072;2022-11-14T06:05:03;17.76;65.82
73780;SHT30;62093;37.614;15.072;2022-11-14T06:07:54;17.76;65.69
73780;SHT30;62093;37.614;15.072;2022-11-14T06:10:38;17.81;65.74
73780;SHT30;62093;37.614;15.072;2022-11-14T06:13:22;17.79;65.82
73780;SHT30;62093;37.614;15.072;2022-11-14T06:16:13;17.81;65.84
73780;SHT30;62093;37.614;15.072;2022-11-14T06:18:58;17.79;65.83
73780;SHT30;62093;37.614;15.072;2022-11-14T06:21:42;17.79;65.77
73780;SHT30;62093;37.614;15.072;2022-11-14T06:24:26;17.81;65.64
73780;SHT30;62093;37.614;15.072;2022-11-14T06:27:11;17.78;65.68
73780;SHT30;62093;37.614;15.072;2022-11-14T06:29:55;17.78;65.66
73780;SHT30;62093;37.614;15.072;2022-11-14T06:32:39;17.79;65.47
73780;SHT30;62093;37.614;15.072;2022-11-14T06:35:24;17.82;65.82
73780;SHT30;62093;37.614;15.072;2022-11-14T06:38:09;17.76;65.46
73780;SHT30;62093;37.614;15.072;2022-11-14T06:41:21;17.79;65.68
73780;SHT30;62093;37.614;15.072;2022-11-14T06:44:06;17.82;65.75
73780;SHT30;62093;37.614;15.072;2022-11-14T06:46:50;17.81;65.38
73780;SHT30;62093;37.614;15.072;2022-11-14T06:49:35;17.78;65.55
73780;SHT30;62093;37.614;15.072;2022-11-14T06:52:19;17.85;65.71
73780;SHT30;62093;37.614;15.072;2022-11-14T06:55:05;17.83;65.06
73780;SHT30;62093;37.614;15.072;2022-11-14T06:57:53;17.83;65.38
73780;SHT30;62093;37.614;15.072;2022-11-14T07:00:38;17.81;65.85
73780;SHT30;62093;37.614;15.072;2022-11-14T07:03:22;17.92;65.45
73780;SHT30;62093;37.614;15.072;2022-11-14T07:06:09;17.95;65.41
73780;SHT30;62093;37.614;15.072;2022-11-14T07:08:55;17.89;65.63
73780;SHT30;62093;37.614;15.072;2022-11-14T07:11:40;17.96;65.85
73780;SHT30;62093;37.614;15.072;2022-11-14T07:14:24;17.96;65.79
73780;SHT30;62093;37.614;15.072;2022-11-14T07:17:08;17.92;65.98
73780;SHT30;62093;37.614;15.072;2022-11-14T07:19:53;17.99;65.91
73780;SHT30;62093;37.614;15.072;2022-11-14T07:22:38;17.97;65.89
73780;SHT30;62093;37.614;15.072;2022-11-14T07:25:22;17.93;65.87
73780;SHT30;62093;37.614;15.072;2022-11-14T07:28:06;18.02;65.91
73780;SHT30;62093;37.614;15.072;2022-11-14T07:30:51;18.06;65.78
73780;SHT30;62093;37.614;15.072;2022-11-14T07:33:35;18.03;65.76
73780;SHT30;62093;37.614;15.072;2022-11-14T07:36:20;18.02;65.75
73780;SHT30;62093;37.614;15.072;2022-11-14T07:39:04;18.02;65.71
73780;SHT30;62093;37.614;15.072;2022-11-14T07:41:48;18.10;65.51
73780;SHT30;62093;37.614;15.072;2022-11-14T07:44:33;18.00;65.83
73780;SHT30;62093;37.614;15.072;2022-11-14T07:47:18;18.07;65.55
73780;SHT30;62093;37.614;15.072;2022-11-14T07:50:02;18.06;65.69
73780;SHT30;62093;37.614;15.072;2022-11-14T07:52:51;18.04;65.64
73780;SHT30;62093;37.614;15.072;2022-11-14T07:55:36;18.03;65.66
73780;SHT30;62093;37.614;15.072;2022-11-14T07:58:20;18.06;65.61
73780;SHT30;62093;37.614;15.072;2022-11-14T08:01:06;17.99;65.76
73780;SHT30;62093;37.614;15.072;2022-11-14T08:03:52;18.03;65.71
73780;SHT30;62093;37.614;15.072;2022-11-14T08:06:37;18.00;65.75
73780;SHT30;62093;37.614;15.072;2022-11-14T08:09:21;18.06;65.52
73780;SHT30;62093;37.614;15.072;2022-11-14T08:12:06;18.03;65.45
73780;SHT30;62093;37.614;15.072;2022-11-14T08:14:50;18.07;65.50
73780;SHT30;62093;37.614;15.072;2022-11-14T08:17:35;18.10;65.36
73780;SHT30;62093;37.614;15.072;2022-11-14T08:20:19;18.07;65.46
73780;SHT30;62093;37.614;15.072;2022-11-14T08:23:05;18.04;65.38
73780;SHT30;62093;37.614;15.072;2022-11-14T08:25:50;18.07;65.06
73780;SHT30;62093;37.614;15.072;2022-11-14T08:28:34;18.09;65.20
73780;SHT30;62093;37.614;15.072;2022-11-14T08:31:20;18.13;64.84
73780;SHT30;62093;37.614;15.072;2022-11-14T08:34:04;18.12;64.87
73780;SHT30;62093;37.614;15.072;2022-11-14T08:36:48;18.07;64.91
73780;SHT30;62093;37.614;15.072;2022-11-14T08:39:33;18.06;64.49
73780;SHT30;62093;37.614;15.072;2022-11-14T08:42:17;18.09;63.64
73780;SHT30;62093;37.614;15.072;2022-11-14T08:45:02;18.18;63.75
73780;SHT30;62093;37.614;15.072;2022-11-14T08:47:50;18.23;63.33
73780;SHT30;62093;37.614;15.072;2022-11-14T08:50:36;18.22;63.12
73780;SHT30;62093;37.614;15.072;2022-11-14T08:53:21;18.16;63.65
73780;SHT30;62093;37.614;15.072;2022-11-14T08:56:06;18.17;63.40
73780;SHT30;62093;37.614;15.072;2022-11-14T08:58:50;18.20;63.09
73780;SHT30;62093;37.614;15.072;2022-11-14T09:01:35;18.22;62.99
73780;SHT30;62093;37.614;15.072;2022-11-14T09:04:19;18.22;63.12
73780;SHT30;62093;37.614;15.072;2022-11-14T09:07:04;18.22;63.05
73780;SHT30;62093;37.614;15.072;2022-11-14T09:09:48;18.12;63.54
73780;SHT30;62093;37.614;15.072;2022-11-14T09:12:33;18.23;63.23
73780;SHT30;62093;37.614;15.072;2022-11-14T09:15:18;18.27;63.62
73780;SHT30;62093;37.614;15.072;2022-11-14T09:18:02;18.24;63.33
73780;SHT30;62093;37.614;15.072;2022-11-14T09:20:47;18.14;63.56
73780;SHT30;62093;37.614;15.072;2022-11-14T09:23:32;18.12;63.76
73780;SHT30;62093;37.614;15.072;2022-11-14T09:26:17;18.18;63.46
73780;SHT30;62093;37.614;15.072;2022-11-14T09:29:01;18.24;63.36
73780;SHT30;62093;37.614;15.072;2022-11-14T09:31:46;18.20;63.48
73780;SHT30;62093;37.614;15.072;2022-11-14T09:34:30;18.34;63.46
73780;SHT30;62093;37.614;15.072;2022-11-14T09:37:15;18.30;63.45
73780;SHT30;62093;37.614;15.072;2022-11-14T09:39:59;18.23;63.40
73780;SHT30;62093;37.614;15.072;2022-11-14T09:46:01;18.23;63.57
73780;SHT30;62093;37.614;15.072;2022-11-14T09:48:46;18.33;63.29
73780;SHT30;62093;37.614;15.072;2022-11-14T09:51:42;18.34;63.14
73780;SHT30;62093;37.614;15.072;2022-11-14T09:54:39;18.34;63.11
73780;SHT30;62093;37.614;15.072;2022-11-14T09:57:26;18.26;63.43
73780;SHT30;62093;37.614;15.072;2022-11-14T10:00:16;18.27;63.60
73780;SHT30;62093;37.614;15.072;2022-11-14T10:06:32;18.27;63.59
73780;SHT30;62093;37.614;15.072;2022-11-14T10:15:18;18.41;63.44
73780;SHT30;62093;37.614;15.072;2022-11-14T10:21:52;18.34;63.86
73780;SHT30;62093;37.614;15.072;2022-11-14T10:34:40;18.45;63.86
73780;SHT30;62093;37.614;15.072;2022-11-14T10:38:00;18.37;64.04
73780;SHT30;62093;37.614;15.072;2022-11-14T10:40:49;18.41;63.98
73780;SHT30;62093;37.614;15.072;2022-11-14T10:43:42;18.41;64.06
73780;SHT30;62093;37.614;15.072;2022-11-14T10:46:39;18.41;64.01
73780;SHT30;62093;37.614;15.072;2022-11-14T10:49:25;18.45;64.07
73780;SHT30;62093;37.614;15.072;2022-11-14T10:52:18;18.38;64.07
73780;SHT30;62093;37.614;15.072;2022-11-14T10:55:06;18.43;63.97
73780;SHT30;62093;37.614;15.072;2022-11-14T10:57:53;18.48;64.52
73780;SHT30;62093;37.614;15.072;2022-11-14T11:00:37;18.50;64.49
73780;SHT30;62093;37.614;15.072;2022-11-14T11:03:40;18.50;64.60
73780;SHT30;62093;37.614;15.072;2022-11-14T11:06:26;18.50;64.56
73780;SHT30;62093;37.614;15.072;2022-11-14T11:09:25;18.50;64.57
73780;SHT30;62093;37.614;15.072;2022-11-14T11:15:29;18.57;64.50
73780;SHT30;62093;37.614;15.072;2022-11-14T11:18:29;18.57;64.65
73780;SHT30;62093;37.614;15.072;2022-11-14T11:21:17;18.57;64.51
73780;SHT30;62093;37.614;15.072;2022-11-14T11:24:02;18.60;64.52
73780;SHT30;62093;37.614;15.072;2022-11-14T11:26:47;18.60;64.50
73780;SHT30;62093;37.614;15.072;2022-11-14T11:29:31;18.63;64.45
73780;SHT30;62093;37.614;15.072;2022-11-14T11:32:25;18.67;64.53
73780;SHT30;62093;37.614;15.072;2022-11-14T11:35:15;18.64;64.36
73780;SHT30;62093;37.614;15.072;2022-11-14T11:38:01;18.74;64.20
73780;SHT30;62093;37.614;15.072;2022-11-14T11:40:49;18.78;63.75
73780;SHT30;62093;37.614;15.072;2022-11-14T11:44:00;18.68;64.16
73780;SHT30;62093;37.614;15.072;2022-11-14T11:52:33;18.69;64.18
73780;SHT30;62093;37.614;15.072;2022-11-14T11:55:42;18.71;64.26
73780;SHT30;62093;37.614;15.072;2022-11-14T11:58:47;18.71;64.19
73780;SHT30;62093;37.614;15.072;2022-11-14T12:01:32;18.72;64.15
73780;SHT30;62093;37.614;15.072;2022-11-14T12:04:17;18.75;64.02
73780;SHT30;62093;37.614;15.072;2022-11-14T12:07:13;18.75;64.09
73780;SHT30;62093;37.614;15.072;2022-11-14T12:10:04;18.76;64.21
73780;SHT30;62093;37.614;15.072;2022-11-14T12:16:14;18.79;64.32
73780;SHT30;62093;37.614;15.072;2022-11-14T12:30:58;18.83;64.38
73780;SHT30;62093;37.614;15.072;2022-11-14T12:34:06;18.81;64.42
73780;SHT30;62093;37.614;15.072;2022-11-14T12:36:56;18.81;64.26
73780;SHT30;62093;37.614;15.072;2022-11-14T12:39:40;18.81;64.29
73780;SHT30;62093;37.614;15.072;2022-11-14T12:42:25;18.85;64.11
73780;SHT30;62093;37.614;15.072;2022-11-14T12:54:41;18.87;64.08
73780;SHT30;62093;37.614;15.072;2022-11-14T12:57:39;18.85;64.05
73780;SHT30;62093;37.614;15.072;2022-11-14T13:07:27;18.87;63.86
73780;SHT30;62093;37.614;15.072;2022-11-14T13:10:35;18.89;63.70
73780;SHT30;62093;37.614;15.072;2022-11-14T13:13:20;18.91;63.66
73780;SHT30;62093;37.614;15.072;2022-11-14T13:16:29;18.92;63.60
73780;SHT30;62093;37.614;15.072;2022-11-14T13:19:33;18.92;63.53
73780;SHT30;62093;37.614;15.072;2022-11-14T13:22:43;18.87;63.60
73780;SHT30;62093;37.614;15.072;2022-11-14T13:25:27;18.95;63.42
73780;SHT30;62093;37.614;15.072;2022-11-14T13:28:45;18.94;63.30
73780;SHT30;62093;37.614;15.072;2022-11-14T13:40:32;18.94;63.29
73780;SHT30;62093;37.614;15.072;2022-11-14T13:43:39;18.94;63.37
73780;SHT30;62093;37.614;15.072;2022-11-14T13:50:07;18.88;63.45
73780;SHT30;62093;37.614;15.072;2022-11-14T13:52:54;18.89;63.43
73780;SHT30;62093;37.614;15.072;2022-11-14T13:59:37;18.91;63.43
73780;SHT30;62093;37.614;15.072;2022-11-14T14:05:47;18.89;63.36
73780;SHT30;62093;37.614;15.072;2022-11-14T14:17:58;18.95;63.34
73780;SHT30;62093;37.614;15.072;2022-11-14T14:20:50;18.92;63.27
73780;SHT30;62093;37.614;15.072;2022-11-14T14:35:52;19.01;63.64
73780;SHT30;62093;37.614;15.072;2022-11-14T14:38:36;18.94;63.79
73780;SHT30;62093;37.614;15.072;2022-11-14T14:41:21;18.98;63.85
73780;SHT30;62093;37.614;15.072;2022-11-14T14:44:23;18.99;63.73
73780;SHT30;62093;37.614;15.072;2022-11-14T14:53:06;18.98;63.95
73780;SHT30;62093;37.614;15.072;2022-11-14T14:55:56;18.98;63.97
73780;SHT30;62093;37.614;15.072;2022-11-14T14:58:40;18.95;63.99
73780;SHT30;62093;37.614;15.072;2022-11-14T15:01:34;18.96;64.02
73780;SHT30;62093;37.614;15.072;2022-11-14T15:04:19;18.99;63.91
73780;SHT30;62093;37.614;15.072;2022-11-14T15:07:14;18.99;63.96
73780;SHT30;62093;37.614;15.072;2022-11-14T15:10:02;19.02;63.91
73780;SHT30;62093;37.614;15.072;2022-11-14T15:12:46;18.99;63.87
73780;SHT30;62093;37.614;15.072;2022-11-14T15:15:32;19.01;63.83
73780;SHT30;62093;37.614;15.072;2022-11-14T15:18:28;18.99;63.81
73780;SHT30;62093;37.614;15.072;2022-11-14T15:24:15;18.99;63.79
73780;SHT30;62093;37.614;15.072;2022-11-14T15:27:03;18.98;63.79
73780;SHT30;62093;37.614;15.072;2022-11-14T15:29:53;18.98;63.78
73780;SHT30;62093;37.614;15.072;2022-11-14T15:32:51;18.98;63.77
73780;SHT30;62093;37.614;15.072;2022-11-14T15:35:37;18.98;63.81
73780;SHT30;62093;37.614;15.072;2022-11-14T15:38:23;18.98;63.79
73780;SHT30;62093;37.614;15.072;2022-11-14T15:41:19;18.98;63.89
73780;SHT30;62093;37.614;15.072;2022-11-14T15:44:04;18.96;63.96
73780;SHT30;62093;37.614;15.072;2022-11-14T15:46:48;18.98;63.95
73780;SHT30;62093;37.614;15.072;2022-11-14T15:49:34;18.99;64.08
73780;SHT30;62093;37.614;15.072;2022-11-14T15:52:23;18.98;64.10
73780;SHT30;62093;37.614;15.072;2022-11-14T15:55:20;18.99;64.20
73780;SHT30;62093;37.614;15.072;2022-11-14T15:58:10;18.99;64.25
73780;SHT30;62093;37.614;15.072;2022-11-14T16:00:55;18.98;64.26
73780;SHT30;62093;37.614;15.072;2022-11-14T16:03:43;18.96;64.37
73780;SHT30;62093;37.614;15.072;2022-11-14T16:06:29;18.99;64.36
73780;SHT30;62093;37.614;15.072;2022-11-14T16:09:17;18.98;64.44
73780;SHT30;62093;37.614;15.072;2022-11-14T16:12:02;18.98;64.45
73780;SHT30;62093;37.614;15.072;2022-11-14T16:14:47;19.01;64.41
73780;SHT30;62093;37.614;15.072;2022-11-14T16:17:39;18.99;64.43
73780;SHT30;62093;37.614;15.072;2022-11-14T16:20:28;19.01;64.45
73780;SHT30;62093;37.614;15.072;2022-11-14T16:23:13;18.96;64.61
73780;SHT30;62093;37.614;15.072;2022-11-14T16:25:58;18.99;64.68
73780;SHT30;62093;37.614;15.072;2022-11-14T16:28:42;18.98;64.79
73780;SHT30;62093;37.614;15.072;2022-11-14T16:31:27;18.96;64.77
73780;SHT30;62093;37.614;15.072;2022-11-14T16:34:17;18.96;64.74
73780;SHT30;62093;37.614;15.072;2022-11-14T16:37:02;18.98;64.78
73780;SHT30;62093;37.614;15.072;2022-11-14T16:39:47;18.98;64.88
73780;SHT30;62093;37.614;15.072;2022-11-14T16:42:31;18.95;64.87
73780;SHT30;62093;37.614;15.072;2022-11-14T16:45:16;19.01;64.75
73780;SHT30;62093;37.614;15.072;2022-11-14T16:48:03;18.94;64.85
73780;SHT30;62093;37.614;15.072;2022-11-14T16:50:48;18.99;64.77
73780;SHT30;62093;37.614;15.072;2022-11-14T16:53:32;18.99;64.82
73780;SHT30;62093;37.614;15.072;2022-11-14T16:56:16;18.96;64.97
73780;SHT30;62093;37.614;15.072;2022-11-14T16:59:00;18.96;64.87
73780;SHT30;62093;37.614;15.072;2022-11-14T17:01:45;18.94;64.94
73780;SHT30;62093;37.614;15.072;2022-11-14T17:04:31;18.98;64.80
73780;SHT30;62093;37.614;15.072;2022-11-14T17:07:19;18.95;64.82
73780;SHT30;62093;37.614;15.072;2022-11-14T17:10:04;18.92;64.92
73780;SHT30;62093;37.614;15.072;2022-11-14T17:12:49;18.95;64.93
73780;SHT30;62093;37.614;15.072;2022-11-14T17:15:33;18.91;64.88
73780;SHT30;62093;37.614;15.072;2022-11-14T17:18:17;18.89;64.90
73780;SHT30;62093;37.614;15.072;2022-11-14T17:21:06;18.89;64.88
73780;SHT30;62093;37.614;15.072;2022-11-14T17:23:58;18.88;64.84
73780;SHT30;62093;37.614;15.072;2022-11-14T17:26:46;18.89;64.91
73780;SHT30;62093;37.614;15.072;2022-11-14T17:29:30;18.84;64.84
73780;SHT30;62093;37.614;15.072;2022-11-14T17:32:15;18.88;64.74
73780;SHT30;62093;37.614;15.072;2022-11-14T17:34:59;18.91;64.67
73780;SHT30;62093;37.614;15.072;2022-11-14T17:37:44;18.87;64.73
73780;SHT30;62093;37.614;15.072;2022-11-14T17:40:28;18.85;64.68
73780;SHT30;62093;37.614;15.072;2022-11-14T17:43:15;18.89;64.49
73780;SHT30;62093;37.614;15.072;2022-11-14T17:46:01;18.87;64.59
73780;SHT30;62093;37.614;15.072;2022-11-14T17:48:45;18.87;64.56
73780;SHT30;62093;37.614;15.072;2022-11-14T17:51:30;18.85;64.56
73780;SHT30;62093;37.614;15.072;2022-11-14T17:54:15;18.81;64.66
73780;SHT30;62093;37.614;15.072;2022-11-14T17:56:59;18.79;64.64
73780;SHT30;62093;37.614;15.072;2022-11-14T17:59:44;18.85;64.55
73780;SHT30;62093;37.614;15.072;2022-11-14T18:02:28;18.84;64.52
73780;SHT30;62093;37.614;15.072;2022-11-14T18:05:13;18.84;64.75
73780;SHT30;62093;37.614;15.072;2022-11-14T18:07:57;18.83;64.96
73780;SHT30;62093;37.614;15.072;2022-11-14T18:10:42;18.85;65.01
73780;SHT30;62093;37.614;15.072;2022-11-14T18:13:26;18.83;65.30
73780;SHT30;62093;37.614;15.072;2022-11-14T18:16:16;18.81;65.37
73780;SHT30;62093;37.614;15.072;2022-11-14T18:19:01;18.79;65.37
73780;SHT30;62093;37.614;15.072;2022-11-14T18:21:46;18.78;65.37
73780;SHT30;62093;37.614;15.072;2022-11-14T18:24:30;18.75;64.99
73780;SHT30;62093;37.614;15.072;2022-11-14T18:27:14;18.71;65.01
73780;SHT30;62093;37.614;15.072;2022-11-14T18:29:59;18.67;65.01
73780;SHT30;62093;37.614;15.072;2022-11-14T18:32:43;18.69;64.66
73780;SHT30;62093;37.614;15.072;2022-11-14T18:35:28;18.67;65.06
73780;SHT30;62093;37.614;15.072;2022-11-14T18:38:12;18.67;64.81
73780;SHT30;62093;37.614;15.072;2022-11-14T18:40:58;18.64;65.13
73780;SHT30;62093;37.614;15.072;2022-11-14T18:43:43;18.64;65.01
73780;SHT30;62093;37.614;15.072;2022-11-14T18:46:28;18.63;65.10
73780;SHT30;62093;37.614;15.072;2022-11-14T18:49:12;18.64;64.92
73780;SHT30;62093;37.614;15.072;2022-11-14T18:51:57;18.63;65.05
73780;SHT30;62093;37.614;15.072;2022-11-14T18:54:41;18.64;64.87
73780;SHT30;62093;37.614;15.072;2022-11-14T18:57:25;18.60;64.94
73780;SHT30;62093;37.614;15.072;2022-11-14T19:00:12;18.60;64.83
73780;SHT30;62093;37.614;15.072;2022-11-14T19:02:56;18.60;64.25
73780;SHT30;62093;37.614;15.072;2022-11-14T19:05:41;18.60;64.44
73780;SHT30;62093;37.614;15.072;2022-11-14T19:08:25;18.60;64.36
73780;SHT30;62093;37.614;15.072;2022-11-14T19:11:11;18.64;64.67
73780;SHT30;62093;37.614;15.072;2022-11-14T19:14:16;18.61;64.29